Time;durP1;ratioP1;P1;durP2;ratioP2;P2;SDS_P1;SDS_P2;PMS_P1;PMS_P2;Temp;Humidity;BMP_temperature;BMP_pressure;BME280_temperature;BME280_humidity;BME280_pressure;Samples;Min_cycle;Max_cycle;Signal;HPM_P1;HPM_P2
2023/03/03 00:02:22;;;;;;;14.10;9.37;;;-1.60;99.90;;;;;;7384489;19;20520;-77
2023/03/03 00:04:48;;;;;;;12.38;8.70;;;-1.50;99.90;;;;;;7389230;19;20320;-81
2023/03/03 00:07:20;;;;;;;9.55;7.22;;;-1.40;99.90;;;;;;7386396;19;20855;-81
2023/03/03 00:09:46;;;;;;;12.68;9.38;;;-1.40;99.90;;;;;;7386898;19;20336;-85
2023/03/03 00:12:29;;;;;;;9.68;7.72;;;-1.30;99.90;;;;;;7387852;19;20361;-79
2023/03/03 00:14:55;;;;;;;12.70;9.07;;;-1.30;99.90;;;;;;7388968;19;20341;-84
2023/03/03 00:17:23;;;;;;;9.52;6.75;;;-1.20;99.90;;;;;;7386504;19;20327;-82
2023/03/03 00:19:48;;;;;;;9.48;7.65;;;-1.10;99.90;;;;;;7386843;19;20329;-81
2023/03/03 00:22:40;;;;;;;8.82;6.88;;;-1.10;99.90;;;;;;7386692;19;20333;-82
2023/03/03 00:25:18;;;;;;;9.90;7.07;;;-0.90;99.90;;;;;;7284558;19;2004229;-80
2023/03/03 00:27:44;;;;;;;11.20;7.37;;;-0.80;99.90;;;;;;7388261;19;20361;-83
2023/03/03 00:30:30;;;;;;;11.18;7.80;;;-0.70;99.90;;;;;;7399943;19;20385;-82
2023/03/03 00:32:55;;;;;;;10.25;7.60;;;-0.80;99.90;;;;;;7398985;19;20297;-85
2023/03/03 00:35:29;;;;;;;10.00;8.00;;;-0.70;99.90;;;;;;7400685;19;20303;-83
2023/03/03 00:37:58;;;;;;;12.07;7.57;;;-0.60;99.90;;;;;;7399145;19;20374;-86
2023/03/03 00:40:38;;;;;;;13.00;9.37;;;-0.60;99.90;;;;;;7398519;19;20304;-82
2023/03/03 00:43:21;;;;;;;11.65;9.23;;;-1.00;99.90;;;;;;7294237;19;2004370;-81
2023/03/03 00:45:51;;;;;;;10.50;8.00;;;-1.00;99.90;;;;;;7389497;19;20328;-80
2023/03/03 00:48:35;;;;;;;12.10;8.32;;;-1.00;99.90;;;;;;7387472;19;20308;-80
2023/03/03 00:51:01;;;;;;;11.50;8.68;;;-1.00;99.90;;;;;;7290214;19;2004524;-82
2023/03/03 00:53:28;;;;;;;11.25;7.20;;;-1.10;99.90;;;;;;7395277;19;20312;-86
2023/03/03 00:55:54;;;;;;;8.82;7.18;;;-1.00;99.90;;;;;;7396762;19;20308;-80
2023/03/03 00:58:20;;;;;;;10.93;7.97;;;-1.00;99.90;;;;;;7395372;19;20309;-82
2023/03/03 01:00:51;;;;;;;7.90;6.00;;;-1.00;99.90;;;;;;7395997;19;20785;-80
2023/03/03 01:03:23;;;;;;;11.13;7.60;;;-1.00;99.90;;;;;;7394802;19;20327;-79
2023/03/03 01:05:50;;;;;;;11.30;7.85;;;-1.00;99.90;;;;;;7394255;19;20304;-80
2023/03/03 01:08:18;;;;;;;8.25;5.90;;;-1.10;99.90;;;;;;7395756;19;20353;-82
2023/03/03 01:10:55;;;;;;;10.30;7.07;;;-1.10;99.90;;;;;;7400063;19;20336;-81
2023/03/03 01:13:26;;;;;;;8.93;7.43;;;-1.10;99.90;;;;;;7392716;19;20323;-83
2023/03/03 01:15:52;;;;;;;10.60;7.50;;;-1.10;99.90;;;;;;7394803;19;20310;-82
2023/03/03 01:18:17;;;;;;;11.37;7.90;;;-1.00;99.90;;;;;;7391375;19;20316;-80
2023/03/03 01:20:43;;;;;;;10.65;7.28;;;-1.10;99.90;;;;;;7395067;19;20373;-81
2023/03/03 01:23:09;;;;;;;11.90;7.60;;;-1.10;99.90;;;;;;7393557;19;20351;-80
2023/03/03 01:25:35;;;;;;;10.75;7.10;;;-1.10;99.90;;;;;;7390520;19;20345;-83
2023/03/03 01:28:01;;;;;;;8.38;6.32;;;-1.40;99.90;;;;;;7394884;19;20332;-81
2023/03/03 01:30:27;;;;;;;10.03;6.47;;;-1.50;99.90;;;;;;7386283;19;20312;-80
2023/03/03 01:32:52;;;;;;;8.00;5.85;;;-1.50;99.90;;;;;;7375970;19;20376;-80
2023/03/03 01:35:18;;;;;;;7.35;5.50;;;-1.60;99.90;;;;;;7387896;19;20329;-80
2023/03/03 01:37:44;;;;;;;6.40;4.80;;;-1.50;99.90;;;;;;7383482;19;20345;-82
2023/03/03 01:40:21;;;;;;;6.20;4.75;;;-1.40;99.90;;;;;;7385853;19;20345;-81
2023/03/03 01:42:46;;;;;;;8.50;5.20;;;-1.30;99.90;;;;;;7383476;19;20933;-81
2023/03/03 01:45:23;;;;;;;9.30;5.83;;;-1.40;99.90;;;;;;7389211;19;20403;-83
2023/03/03 01:48:00;;;;;;;7.45;5.60;;;-1.30;99.90;;;;;;7389395;19;20336;-83
2023/03/03 01:50:40;;;;;;;6.93;5.10;;;-1.30;99.90;;;;;;7390611;19;20807;-82
2023/03/03 01:53:10;;;;;;;7.00;5.32;;;-1.20;99.90;;;;;;7288138;19;2004196;-80
2023/03/03 01:55:36;;;;;;;6.68;5.38;;;-1.20;99.90;;;;;;7389300;19;20333;-80
2023/03/03 01:58:06;;;;;;;6.25;4.43;;;-1.20;99.90;;;;;;7387670;19;20360;-86
2023/03/03 02:00:31;;;;;;;4.75;4.20;;;-1.30;99.90;;;;;;7390173;19;20289;-82
2023/03/03 02:02:57;;;;;;;6.20;4.50;;;-1.20;99.90;;;;;;7389365;19;20332;-81
2023/03/03 02:05:23;;;;;;;5.43;4.07;;;-1.40;99.90;;;;;;7395630;19;20322;-81
2023/03/03 02:07:49;;;;;;;6.10;4.20;;;-1.30;99.90;;;;;;7392827;19;20356;-83
2023/03/03 02:10:17;;;;;;;5.80;4.47;;;-1.20;99.90;;;;;;7393170;19;20316;-85
2023/03/03 02:12:51;;;;;;;9.25;6.30;;;-1.20;99.90;;;;;;7393187;19;20341;-82
2023/03/03 02:15:36;;;;;;;9.70;6.13;;;-1.10;99.90;;;;;;7393451;19;20622;-82
2023/03/03 02:18:05;;;;;;;9.38;6.35;;;-1.20;99.90;;;;;;7289487;19;2004204;-87
2023/03/03 02:20:39;;;;;;;7.60;5.50;;;-1.30;99.90;;;;;;7392269;19;20380;-86
2023/03/03 02:23:20;;;;;;;7.35;5.80;;;-1.30;99.90;;;;;;7392337;19;20324;-79
2023/03/03 02:25:56;;;;;;;8.48;5.90;;;-1.20;99.90;;;;;;7407466;19;20336;-81
2023/03/03 02:28:27;;;;;;;8.75;5.97;;;-1.10;99.90;;;;;;7406940;19;20304;-81
2023/03/03 02:30:54;;;;;;;9.00;6.80;;;-1.10;99.90;;;;;;7406990;19;20340;-87
2023/03/03 02:33:20;;;;;;;8.52;6.95;;;-1.20;99.90;;;;;;7408219;19;20355;-89
2023/03/03 02:35:47;;;;;;;8.77;6.10;;;-1.20;99.90;;;;;;7412039;19;21091;-84
2023/03/03 02:38:24;;;;;;;10.35;6.90;;;-1.20;99.90;;;;;;7408524;19;20823;-82
2023/03/03 02:40:58;;;;;;;9.75;6.10;;;-1.20;99.90;;;;;;7405944;19;20753;-86
2023/03/03 02:43:26;;;;;;;6.47;5.55;;;-1.30;99.90;;;;;;7405214;19;20421;-84
2023/03/03 02:45:52;;;;;;;9.73;6.43;;;-1.30;99.90;;;;;;7405546;19;20297;-82
2023/03/03 02:48:18;;;;;;;9.95;6.78;;;-1.20;99.90;;;;;;7402862;19;20376;-85
2023/03/03 02:50:43;;;;;;;9.35;5.80;;;-1.50;99.90;;;;;;7403932;19;20361;-83
2023/03/03 02:53:09;;;;;;;6.40;5.27;;;-1.50;99.90;;;;;;7406407;19;20331;-81
2023/03/03 02:55:35;;;;;;;6.43;4.90;;;-1.50;99.90;;;;;;7405762;19;20341;-90
2023/03/03 02:58:00;;;;;;;6.93;4.47;;;-1.40;99.90;;;;;;7405564;19;20311;-84
2023/03/03 03:00:26;;;;;;;5.40;4.10;;;-1.40;99.90;;;;;;7404905;19;20368;-82
2023/03/03 03:02:52;;;;;;;6.03;4.63;;;-1.20;99.90;;;;;;7404169;19;20349;-82
2023/03/03 03:05:18;;;;;;;7.68;5.15;;;-1.20;99.90;;;;;;7405610;19;20325;-80
2023/03/03 03:07:44;;;;;;;4.87;4.07;;;-1.30;99.90;;;;;;7403723;19;20351;-80
2023/03/03 03:10:10;;;;;;;6.28;4.75;;;-1.20;99.90;;;;;;7402559;19;20887;-81
2023/03/03 03:12:39;;;;;;;6.85;5.57;;;-1.10;99.90;;;;;;7404466;19;20669;-83
2023/03/03 03:15:05;;;;;;;6.00;4.68;;;-1.10;99.90;;;;;;7406639;19;20435;-81
2023/03/03 03:17:30;;;;;;;7.38;5.18;;;-1.10;99.90;;;;;;7401086;19;20440;-79
2023/03/03 03:19:58;;;;;;;6.00;5.30;;;-1.30;99.90;;;;;;7403107;19;20781;-81
2023/03/03 03:22:24;;;;;;;4.37;3.57;;;-1.30;99.90;;;;;;7402770;19;20321;-86
2023/03/03 03:24:50;;;;;;;6.40;5.20;;;-1.30;99.90;;;;;;7404709;19;20308;-79
2023/03/03 03:27:15;;;;;;;5.65;4.93;;;-1.30;99.90;;;;;;7403682;19;20349;-84
2023/03/03 03:29:41;;;;;;;6.03;5.15;;;-1.30;99.90;;;;;;7402452;19;20336;-86
2023/03/03 03:32:07;;;;;;;5.50;4.20;;;-1.30;99.90;;;;;;7396170;19;20357;-82
2023/03/03 03:34:33;;;;;;;6.33;4.83;;;-1.30;99.90;;;;;;7400157;19;20315;-80
2023/03/03 03:36:58;;;;;;;6.70;4.95;;;-1.30;99.90;;;;;;7394646;19;20317;-91
2023/03/03 03:39:26;;;;;;;7.10;5.55;;;-1.30;99.90;;;;;;7393200;19;20316;-81
2023/03/03 03:41:52;;;;;;;8.40;5.85;;;-1.50;99.90;;;;;;7395970;19;20419;-83
2023/03/03 03:44:18;;;;;;;7.50;5.13;;;-1.40;99.90;;;;;;7398828;19;20336;-81
2023/03/03 03:46:44;;;;;;;8.82;5.63;;;-1.60;99.90;;;;;;7396690;19;20356;-82
2023/03/03 03:49:10;;;;;;;12.50;6.72;;;-1.70;99.90;;;;;;7396970;19;20309;-82
2023/03/03 03:51:40;;;;;;;10.50;6.32;;;-1.70;99.90;;;;;;7395818;19;20325;-84
2023/03/03 03:54:06;;;;;;;9.48;6.72;;;-1.80;99.90;;;;;;7398481;19;20354;-78
2023/03/03 03:56:34;;;;;;;10.25;6.95;;;-1.80;99.90;;;;;;7394386;19;20352;-84
2023/03/03 03:59:00;;;;;;;11.03;6.93;;;-1.80;99.90;;;;;;7391327;19;20319;-82
2023/03/03 04:01:27;;;;;;;11.10;7.20;;;-1.80;99.90;;;;;;7395406;19;20358;-79
2023/03/03 04:03:53;;;;;;;9.80;6.35;;;-1.80;99.90;;;;;;7397026;19;20300;-86
2023/03/03 04:06:22;;;;;;;12.82;7.72;;;-1.80;99.90;;;;;;7395997;19;20304;-83
2023/03/03 04:08:47;;;;;;;12.98;8.30;;;-1.70;99.90;;;;;;7393565;19;20356;-86
2023/03/03 04:11:14;;;;;;;14.45;9.00;;;-1.80;99.90;;;;;;7392745;19;20341;-80
2023/03/03 04:13:40;;;;;;;14.65;8.68;;;-1.90;99.90;;;;;;7397366;19;20369;-81
2023/03/03 04:16:08;;;;;;;16.90;9.00;;;-1.80;99.90;;;;;;7397671;19;20375;-84
2023/03/03 04:18:34;;;;;;;15.88;9.43;;;-1.80;99.90;;;;;;7395871;19;20320;-84
2023/03/03 04:21:00;;;;;;;20.23;9.60;;;-1.90;99.90;;;;;;7396703;19;20878;-85
2023/03/03 04:23:26;;;;;;;16.55;10.43;;;-1.90;99.90;;;;;;7395778;19;20852;-83
2023/03/03 04:25:53;;;;;;;17.47;10.57;;;-1.90;99.90;;;;;;7395776;19;20316;-83
2023/03/03 04:28:20;;;;;;;18.98;10.68;;;-1.90;99.90;;;;;;7393116;19;20301;-82
2023/03/03 04:30:46;;;;;;;20.67;11.15;;;-1.90;99.90;;;;;;7396728;19;20336;-81
2023/03/03 04:33:14;;;;;;;19.13;10.85;;;-2.00;99.90;;;;;;7401711;19;20790;-85
2023/03/03 04:35:40;;;;;;;21.03;11.13;;;-1.90;99.90;;;;;;7398132;19;20325;-79
2023/03/03 04:38:06;;;;;;;19.30;10.87;;;-1.90;99.90;;;;;;7395810;19;20321;-86
2023/03/03 04:40:33;;;;;;;24.13;11.80;;;-1.90;99.90;;;;;;7395604;19;20342;-80
2023/03/03 04:43:00;;;;;;;19.30;11.63;;;-1.70;99.90;;;;;;7396504;19;20322;-81
2023/03/03 04:45:26;;;;;;;22.20;11.68;;;-2.00;99.90;;;;;;7397573;19;20714;-79
2023/03/03 04:47:52;;;;;;;21.23;10.40;;;-1.90;99.90;;;;;;7390532;19;20317;-85
2023/03/03 04:50:18;;;;;;;21.85;11.23;;;-2.00;99.90;;;;;;7397145;19;20333;-81
2023/03/03 04:52:44;;;;;;;20.03;10.47;;;-2.00;99.90;;;;;;7391995;19;20368;-82
2023/03/03 04:55:13;;;;;;;18.20;10.93;;;-2.00;99.90;;;;;;7391103;19;20325;-80
2023/03/03 04:57:40;;;;;;;18.77;10.80;;;-1.90;99.90;;;;;;7395177;19;20345;-81
2023/03/03 05:00:07;;;;;;;17.55;10.05;;;-1.90;99.90;;;;;;7382009;19;20301;-78
2023/03/03 05:02:32;;;;;;;17.00;10.53;;;-1.80;99.90;;;;;;7378311;19;20383;-81
2023/03/03 05:04:59;;;;;;;15.82;10.45;;;-1.80;99.90;;;;;;7382125;19;20673;-81
2023/03/03 05:07:24;;;;;;;19.30;10.30;;;-1.80;99.90;;;;;;7381003;19;20325;-84
2023/03/03 05:09:50;;;;;;;15.82;9.20;;;-1.90;99.90;;;;;;7382930;19;20343;-79
2023/03/03 05:12:16;;;;;;;18.07;10.87;;;-1.90;99.90;;;;;;7380268;19;20320;-82
2023/03/03 05:14:41;;;;;;;15.17;9.03;;;-1.80;99.90;;;;;;7382162;19;20911;-81
2023/03/03 05:17:07;;;;;;;13.45;8.50;;;-1.70;99.90;;;;;;7379910;19;20878;-78
2023/03/03 05:19:33;;;;;;;13.25;7.80;;;-1.70;99.90;;;;;;7379765;19;20799;-80
2023/03/03 05:21:59;;;;;;;15.95;8.38;;;-1.70;99.90;;;;;;7379106;19;20320;-79
2023/03/03 05:24:25;;;;;;;12.60;7.65;;;-1.80;99.90;;;;;;7381919;19;20328;-80
2023/03/03 05:26:52;;;;;;;17.77;11.20;;;-1.80;99.90;;;;;;7382873;19;20320;-80
2023/03/03 05:29:17;;;;;;;11.10;7.43;;;-1.90;99.90;;;;;;7377129;19;20317;-83
2023/03/03 05:31:43;;;;;;;12.17;7.63;;;-1.90;99.90;;;;;;7378229;19;20765;-80
2023/03/03 05:34:08;;;;;;;13.63;8.57;;;-1.80;99.90;;;;;;7382133;19;20326;-81
2023/03/03 05:36:34;;;;;;;11.52;7.53;;;-1.80;99.90;;;;;;7381419;19;20339;-78
2023/03/03 05:38:59;;;;;;;14.00;7.63;;;-1.90;99.90;;;;;;7382077;19;20871;-88
2023/03/03 05:41:26;;;;;;;15.95;9.38;;;-1.90;99.90;;;;;;7400566;19;20305;-85
2023/03/03 05:43:52;;;;;;;13.33;8.60;;;-1.90;99.90;;;;;;7387683;19;20664;-81
2023/03/03 05:46:17;;;;;;;16.58;9.50;;;-1.90;99.90;;;;;;7385143;19;24706;-81
2023/03/03 05:48:44;;;;;;;14.47;9.40;;;-2.00;99.90;;;;;;7380040;19;20887;-80
2023/03/03 05:51:10;;;;;;;16.63;9.38;;;-2.00;99.90;;;;;;7380589;19;20330;-79
2023/03/03 05:53:37;;;;;;;14.30;8.45;;;-2.10;99.90;;;;;;7378759;19;20313;-82
2023/03/03 05:56:05;;;;;;;15.68;9.23;;;-2.00;99.90;;;;;;7370914;19;20321;-83
2023/03/03 05:58:31;;;;;;;14.77;9.00;;;-2.00;99.90;;;;;;7368993;19;20301;-90
2023/03/03 06:00:56;;;;;;;17.00;9.73;;;-2.00;99.90;;;;;;7401703;19;20332;-82
2023/03/03 06:03:22;;;;;;;15.70;9.17;;;-2.00;99.90;;;;;;7397111;19;20312;-88
2023/03/03 06:05:48;;;;;;;15.98;9.45;;;-2.00;99.90;;;;;;7394478;19;20412;-82
2023/03/03 06:08:14;;;;;;;14.95;9.27;;;-2.10;99.90;;;;;;7391542;19;20320;-81
2023/03/03 06:10:40;;;;;;;14.57;9.13;;;-2.10;99.90;;;;;;7394257;19;20341;-94
2023/03/03 06:13:10;;;;;;;13.27;9.07;;;-2.10;99.90;;;;;;7400081;19;20414;-91
2023/03/03 06:15:38;;;;;;;14.27;8.55;;;-2.10;99.90;;;;;;7414801;19;20309;-86
2023/03/03 06:18:07;;;;;;;16.00;9.00;;;-2.00;99.90;;;;;;7391642;19;20417;-83
2023/03/03 06:20:34;;;;;;;15.55;9.90;;;-1.90;99.90;;;;;;7397193;19;20320;-86
2023/03/03 06:23:00;;;;;;;13.82;8.52;;;-1.80;99.90;;;;;;7385244;19;20412;-84
2023/03/03 06:25:25;;;;;;;17.15;9.55;;;-1.80;99.90;;;;;;7381334;19;20407;-90
2023/03/03 06:27:51;;;;;;;15.07;9.07;;;-1.80;99.90;;;;;;7401406;19;20325;-91
2023/03/03 06:30:17;;;;;;;16.15;8.55;;;-1.90;99.90;;;;;;7404096;19;20333;-91
2023/03/03 06:32:43;;;;;;;15.50;9.27;;;-1.80;99.90;;;;;;7404916;19;20308;-90
2023/03/03 06:35:09;;;;;;;14.23;8.57;;;-1.80;99.90;;;;;;7405195;19;20420;-91
2023/03/03 06:37:35;;;;;;;12.88;8.02;;;-1.70;99.90;;;;;;7405262;19;20320;-88
2023/03/03 06:40:00;;;;;;;12.33;8.83;;;-1.70;99.90;;;;;;7404142;19;20337;-88
2023/03/03 06:42:26;;;;;;;13.35;7.97;;;-1.70;99.90;;;;;;7404672;19;20389;-88
2023/03/03 06:44:53;;;;;;;12.67;7.43;;;-1.70;99.90;;;;;;7405335;19;20312;-85
2023/03/03 06:47:19;;;;;;;12.27;7.45;;;-1.70;99.90;;;;;;7404322;19;20332;-83
2023/03/03 06:49:44;;;;;;;12.45;7.53;;;-1.60;99.90;;;;;;7399399;19;20304;-81
2023/03/03 06:52:22;;;;;;;9.73;6.83;;;-1.50;99.90;;;;;;7395589;19;20400;-80
2023/03/03 06:54:48;;;;;;;14.00;7.78;;;-1.60;99.90;;;;;;7376082;19;20345;-79
2023/03/03 06:57:16;;;;;;;12.32;7.80;;;-1.70;99.90;;;;;;7376646;19;20317;-77
2023/03/03 06:59:42;;;;;;;11.18;7.85;;;-1.70;99.90;;;;;;7376810;19;20358;-80
2023/03/03 07:02:14;;;;;;;10.95;7.03;;;-1.60;99.90;;;;;;7376471;19;20963;-82
2023/03/03 07:04:40;;;;;;;11.70;7.22;;;-1.60;99.90;;;;;;7373804;19;20322;-78
2023/03/03 07:07:20;;;;;;;13.48;7.25;;;-1.60;99.90;;;;;;7372444;19;20328;-83
2023/03/03 07:09:53;;;;;;;9.77;6.60;;;-1.60;99.90;;;;;;7375127;19;20361;-78
2023/03/03 07:12:24;;;;;;;7.85;5.90;;;-1.60;99.90;;;;;;7379056;19;20382;-83
2023/03/03 07:14:54;;;;;;;10.27;6.25;;;-1.60;99.90;;;;;;7379607;19;20321;-78
2023/03/03 07:17:21;;;;;;;7.57;5.70;;;-1.50;99.90;;;;;;7379079;19;20305;-80
2023/03/03 07:19:46;;;;;;;8.65;6.10;;;-1.50;99.90;;;;;;7383899;19;20340;-80
2023/03/03 07:22:19;;;;;;;9.00;6.32;;;-1.50;99.90;;;;;;7383437;19;20348;-80
2023/03/03 07:24:47;;;;;;;10.05;6.57;;;-1.50;99.90;;;;;;7384961;19;20361;-81
2023/03/03 07:27:18;;;;;;;9.40;6.07;;;-1.50;99.90;;;;;;7382487;19;20359;-78
2023/03/03 07:29:46;;;;;;;9.57;6.72;;;-1.40;99.90;;;;;;7384173;19;20345;-79
2023/03/03 07:32:38;;;;;;;10.05;6.07;;;-1.50;99.90;;;;;;7381890;19;20448;-79
2023/03/03 07:35:27;;;;;;;10.98;7.13;;;-1.50;99.90;;;;;;7281461;19;2004493;-86
2023/03/03 07:37:52;;;;;;;11.90;6.80;;;-1.50;99.90;;;;;;7386427;19;20325;-79
2023/03/03 07:40:30;;;;;;;10.35;7.13;;;-1.40;99.90;;;;;;7386272;19;20930;-81
2023/03/03 07:42:55;;;;;;;12.02;7.85;;;-1.40;99.90;;;;;;7385203;19;21157;-80
2023/03/03 07:45:33;;;;;;;9.70;7.27;;;-1.40;99.90;;;;;;7283531;19;2004384;-84
2023/03/03 07:48:09;;;;;;;14.18;7.55;;;-1.30;99.90;;;;;;7381875;19;20321;-79
2023/03/03 07:50:35;;;;;;;11.30;7.97;;;-1.30;99.90;;;;;;7385131;19;20355;-78
2023/03/03 07:53:01;;;;;;;11.97;8.10;;;-1.30;99.90;;;;;;7382289;19;20341;-79
2023/03/03 07:55:31;;;;;;;10.25;6.97;;;-1.30;99.90;;;;;;7386310;19;20316;-82
2023/03/03 07:58:05;;;;;;;12.43;7.00;;;-1.40;99.90;;;;;;7384567;19;20341;-82
2023/03/03 08:00:30;;;;;;;10.60;7.43;;;-1.40;99.90;;;;;;7281718;19;2019436;-81
2023/03/03 08:03:18;;;;;;;10.88;7.43;;;-1.30;99.90;;;;;;7404838;19;20352;-87
2023/03/03 08:05:46;;;;;;;10.82;7.45;;;-1.10;99.90;;;;;;7395336;19;20380;-88
2023/03/03 08:08:12;;;;;;;11.60;7.28;;;-1.10;99.90;;;;;;7395406;19;20984;-83
2023/03/03 08:10:48;;;;;;;14.13;8.95;;;-1.00;99.90;;;;;;7385100;19;20313;-82
2023/03/03 08:13:19;;;;;;;12.35;8.27;;;-1.00;99.90;;;;;;7388157;19;20324;-85
2023/03/03 08:15:46;;;;;;;13.15;8.10;;;-1.10;99.90;;;;;;7389090;19;20337;-85
2023/03/03 08:18:27;;;;;;;12.70;8.43;;;-1.00;99.90;;;;;;7385049;19;20657;-79
2023/03/03 08:20:55;;;;;;;14.83;8.90;;;-1.00;99.90;;;;;;7381755;19;20330;-78
2023/03/03 08:23:21;;;;;;;13.93;10.17;;;-1.00;99.90;;;;;;7380687;19;20336;-77
2023/03/03 08:25:47;;;;;;;16.00;10.03;;;-0.90;99.90;;;;;;7384376;19;20348;-80
2023/03/03 08:28:12;;;;;;;13.03;7.83;;;-0.80;99.90;;;;;;7381785;19;20680;-79
2023/03/03 08:30:38;;;;;;;14.00;9.10;;;-0.70;99.90;;;;;;7379905;19;20323;-81
2023/03/03 08:33:05;;;;;;;16.90;10.23;;;-0.70;99.90;;;;;;7379738;19;20325;-79
2023/03/03 08:35:31;;;;;;;14.13;8.98;;;-0.70;99.90;;;;;;7382430;19;20859;-77
2023/03/03 08:37:56;;;;;;;15.40;9.27;;;-0.70;99.90;;;;;;7382212;19;20321;-78
2023/03/03 08:40:22;;;;;;;16.40;9.90;;;-0.60;99.90;;;;;;7383754;19;20377;-80
2023/03/03 08:42:48;;;;;;;13.73;9.40;;;-0.50;99.90;;;;;;7383180;19;20352;-79
2023/03/03 08:45:13;;;;;;;12.90;8.70;;;-0.60;99.90;;;;;;7383010;19;20316;-79
2023/03/03 08:47:39;;;;;;;14.35;9.25;;;-0.70;99.90;;;;;;7381405;19;21083;-79
2023/03/03 08:50:05;;;;;;;14.27;8.83;;;-0.70;99.90;;;;;;7381774;19;20382;-80
2023/03/03 08:52:30;;;;;;;15.60;10.32;;;-0.70;99.90;;;;;;7381791;19;20706;-81
2023/03/03 08:54:56;;;;;;;12.35;8.30;;;-0.60;99.90;;;;;;7382610;19;20309;-81
2023/03/03 08:57:22;;;;;;;15.13;9.43;;;-0.70;99.90;;;;;;7378426;19;20835;-79
2023/03/03 08:59:47;;;;;;;15.70;8.70;;;-0.50;99.90;;;;;;7380379;19;20358;-79
2023/03/03 09:02:13;;;;;;;15.30;9.90;;;-0.50;99.90;;;;;;7377696;19;20859;-82
2023/03/03 09:04:38;;;;;;;14.60;10.03;;;-0.40;99.90;;;;;;7380903;19;20332;-78
2023/03/03 09:07:04;;;;;;;16.20;9.10;;;-0.60;99.90;;;;;;7378518;19;20313;-81
2023/03/03 09:09:30;;;;;;;12.70;8.70;;;-0.50;99.90;;;;;;7379297;19;20324;-80
2023/03/03 09:12:01;;;;;;;17.13;10.77;;;-0.40;99.90;;;;;;7378638;19;20305;-78
2023/03/03 09:14:27;;;;;;;13.73;8.98;;;-0.40;99.90;;;;;;7381362;19;20304;-81
2023/03/03 09:16:53;;;;;;;16.38;10.25;;;-0.50;99.90;;;;;;7380749;19;20305;-80
2023/03/03 09:19:26;;;;;;;19.60;11.70;;;-0.60;99.90;;;;;;7378760;19;20689;-80
2023/03/03 09:21:53;;;;;;;17.33;12.00;;;-0.40;99.90;;;;;;7378679;19;20332;-77
2023/03/03 09:24:26;;;;;;;14.65;9.90;;;-0.50;99.90;;;;;;7381101;19;20341;-79
2023/03/03 09:26:52;;;;;;;15.65;10.60;;;-0.40;99.90;;;;;;7382101;19;20389;-78
2023/03/03 09:29:27;;;;;;;18.13;10.32;;;-0.40;99.90;;;;;;7378412;19;20320;-77
2023/03/03 09:31:54;;;;;;;15.70;10.57;;;-0.30;99.90;;;;;;7377431;19;20328;-79
2023/03/03 09:34:22;;;;;;;17.70;12.40;;;-0.20;99.90;;;;;;7378003;19;20301;-78
2023/03/03 09:36:48;;;;;;;15.60;10.18;;;-0.20;99.90;;;;;;7379936;19;20360;-79
2023/03/03 09:39:19;;;;;;;17.75;10.75;;;-0.30;99.90;;;;;;7379360;19;20332;-78
2023/03/03 09:42:20;;;;;;;17.58;11.30;;;-0.20;99.90;;;;;;7378763;19;20352;-79
2023/03/03 09:45:07;;;;;;;17.52;12.02;;;-0.20;99.90;;;;;;7273814;19;2004640;-79
2023/03/03 09:47:43;;;;;;;15.50;10.27;;;-0.10;99.90;;;;;;7275647;19;2004541;-77
2023/03/03 09:50:29;;;;;;;20.95;12.95;;;-0.10;99.90;;;;;;7377080;19;20293;-79
2023/03/03 09:53:16;;;;;;;18.48;12.52;;;-0.30;99.90;;;;;;7378576;19;20343;-78
2023/03/03 09:55:50;;;;;;;15.50;9.80;;;-0.20;99.90;;;;;;7278142;19;2004927;-82
2023/03/03 09:58:28;;;;;;;14.32;9.63;;;0.00;99.90;;;;;;7376967;19;20327;-80
2023/03/03 10:01:05;;;;;;;12.55;8.98;;;0.00;99.90;;;;;;7378344;19;20324;-77
2023/03/03 10:03:49;;;;;;;14.17;10.60;;;-0.10;99.90;;;;;;7277735;19;2004242;-79
2023/03/03 10:06:30;;;;;;;17.33;11.40;;;0.00;99.90;;;;;;7379686;19;20444;-83
2023/03/03 10:08:58;;;;;;;15.07;8.87;;;0.10;99.90;;;;;;7376320;19;20320;-79
2023/03/03 10:11:31;;;;;;;14.60;9.73;;;0.00;99.90;;;;;;7380345;19;20872;-80
2023/03/03 10:14:14;;;;;;;13.10;9.05;;;0.10;99.90;;;;;;7378437;19;20400;-79
2023/03/03 10:17:05;;;;;;;16.50;11.48;;;0.00;99.90;;;;;;7277653;19;2004252;-80
2023/03/03 10:19:59;;;;;;;12.00;8.70;;;0.00;99.90;;;;;;7274632;19;2004789;-78
2023/03/03 10:22:27;;;;;;;13.35;9.82;;;-0.10;99.90;;;;;;7378248;19;20378;-85
2023/03/03 10:25:12;;;;;;;13.77;10.38;;;0.00;99.90;;;;;;7379076;19;20312;-79
2023/03/03 10:28:16;;;;;;;14.03;8.63;;;-0.10;99.90;;;;;;7274993;19;2004667;-85
2023/03/03 10:30:57;;;;;;;13.27;9.57;;;-0.10;99.90;;;;;;7273232;19;2004947;-81
2023/03/03 10:33:36;;;;;;;11.20;8.45;;;-0.10;99.90;;;;;;7377941;19;20671;-80
2023/03/03 10:36:14;;;;;;;13.20;8.13;;;-0.10;99.90;;;;;;7275695;19;2004420;-79
2023/03/03 10:39:17;;;;;;;12.15;9.57;;;0.00;99.90;;;;;;7378723;19;20712;-83
2023/03/03 10:41:52;;;;;;;11.52;8.60;;;0.10;99.90;;;;;;7274823;19;2004537;-78
2023/03/03 10:44:46;;;;;;;13.15;8.90;;;0.10;99.90;;;;;;7383116;19;20379;-78
2023/03/03 10:47:38;;;;;;;11.75;8.18;;;0.10;99.90;;;;;;7285196;19;2004541;-81
2023/03/03 10:50:18;;;;;;;12.50;7.88;;;0.00;99.90;;;;;;7283303;19;2004450;-79
2023/03/03 10:52:47;;;;;;;12.52;9.57;;;0.00;99.90;;;;;;7384072;19;20316;-80
2023/03/03 10:55:26;;;;;;;12.95;9.43;;;0.10;99.90;;;;;;7384138;19;21220;-79
2023/03/03 10:58:26;;;;;;;12.52;7.63;;;0.20;99.90;;;;;;7384505;19;20320;-79
2023/03/03 11:01:03;;;;;;;11.27;8.80;;;0.10;99.90;;;;;;7281541;19;2004440;-78
2023/03/03 11:03:33;;;;;;;9.40;7.32;;;-0.10;99.90;;;;;;7383564;19;20312;-79
2023/03/03 11:06:17;;;;;;;15.00;9.40;;;-0.10;99.90;;;;;;7384837;19;20318;-78
2023/03/03 11:08:52;;;;;;;10.05;7.70;;;-0.10;99.90;;;;;;7281123;19;2004346;-80
2023/03/03 11:11:33;;;;;;;9.37;7.20;;;0.00;99.90;;;;;;7383911;19;20329;-78
2023/03/03 11:14:31;;;;;;;9.93;6.57;;;-0.10;99.90;;;;;;7384352;19;20313;-80
2023/03/03 11:16:57;;;;;;;11.90;8.52;;;-0.10;99.90;;;;;;7281806;19;2004332;-82
2023/03/03 11:20:00;;;;;;;9.37;6.93;;;0.00;99.90;;;;;;7384444;19;20325;-82
2023/03/03 11:22:35;;;;;;;11.50;7.38;;;0.00;99.90;;;;;;7280199;19;2004418;-79
2023/03/03 11:25:19;;;;;;;13.07;9.15;;;0.10;99.90;;;;;;7282326;19;2004374;-80
2023/03/03 11:28:09;;;;;;;10.95;8.65;;;0.20;99.90;;;;;;7382959;19;20352;-80
2023/03/03 11:31:08;;;;;;;9.98;7.72;;;0.20;99.90;;;;;;7281496;19;2004299;-81
2023/03/03 11:33:36;;;;;;;10.18;8.10;;;0.20;99.90;;;;;;7279344;19;2004714;-79
2023/03/03 11:36:09;;;;;;;12.45;7.95;;;0.20;99.90;;;;;;7384163;19;20324;-79
2023/03/03 11:38:45;;;;;;;9.93;7.32;;;0.20;99.90;;;;;;7382127;19;20395;-80
2023/03/03 11:41:31;;;;;;;9.45;7.30;;;0.20;99.90;;;;;;7383251;19;20341;-81
2023/03/03 11:44:04;;;;;;;8.55;6.10;;;0.20;99.90;;;;;;7382639;19;20304;-82
2023/03/03 11:46:52;;;;;;;10.02;7.47;;;0.20;99.90;;;;;;7281789;19;2004721;-80
2023/03/03 11:49:30;;;;;;;11.38;8.55;;;0.30;99.90;;;;;;7379967;19;20312;-79
2023/03/03 11:52:26;;;;;;;10.25;7.45;;;0.40;99.90;;;;;;7381697;19;20316;-80
2023/03/03 11:54:59;;;;;;;8.93;6.93;;;0.20;99.90;;;;;;7281642;19;2004407;-80
2023/03/03 11:57:47;;;;;;;9.05;7.00;;;0.20;99.90;;;;;;7379427;19;20293;-84
2023/03/03 12:00:44;;;;;;;9.38;7.90;;;0.20;99.90;;;;;;7281017;19;2004577;-78
2023/03/03 12:03:37;;;;;;;8.50;6.57;;;0.10;99.90;;;;;;7278844;19;2004501;-77
2023/03/03 12:06:03;;;;;;;12.43;8.45;;;0.10;99.90;;;;;;7279849;19;2004374;-81
2023/03/03 12:09:05;;;;;;;13.38;9.40;;;0.20;99.90;;;;;;7379394;19;20308;-82
2023/03/03 12:11:39;;;;;;;10.43;7.60;;;0.30;99.90;;;;;;7174235;19;2004751;-78
2023/03/03 12:14:46;;;;;;;11.43;8.18;;;0.30;99.90;;;;;;7380417;19;20305;-79
2023/03/03 12:17:25;;;;;;;13.43;8.38;;;0.40;99.90;;;;;;7277471;19;2004708;-83
2023/03/03 12:20:22;;;;;;;12.50;8.73;;;0.50;99.90;;;;;;7386457;19;20395;-80
2023/03/03 12:23:07;;;;;;;11.73;8.80;;;0.60;99.90;;;;;;7276148;19;2018191;-77
2023/03/03 12:25:40;;;;;;;10.82;8.30;;;0.50;99.90;;;;;;7278388;19;2016567;-80
2023/03/03 12:28:21;;;;;;;11.82;8.70;;;0.40;99.90;;;;;;7379541;19;20316;-81
2023/03/03 12:31:23;;;;;;;12.40;9.40;;;0.40;99.90;;;;;;7379153;19;20327;-79
2023/03/03 12:34:07;;;;;;;15.02;8.32;;;0.50;99.90;;;;;;7276786;19;2004416;-80
2023/03/03 12:37:08;;;;;;;16.15;10.48;;;0.30;99.90;;;;;;7275072;19;2019819;-79
2023/03/03 12:39:44;;;;;;;12.52;8.70;;;0.30;99.90;;;;;;7275411;19;2004335;-79
2023/03/03 12:42:34;;;;;;;13.82;8.68;;;0.40;99.90;;;;;;7379153;19;20719;-80
2023/03/03 12:45:04;;;;;;;12.93;9.70;;;0.50;99.90;;;;;;7379886;19;20334;-78
2023/03/03 12:47:37;;;;;;;14.87;9.50;;;0.50;99.90;;;;;;7379237;19;20955;-78
2023/03/03 12:50:13;;;;;;;16.30;10.27;;;0.40;99.90;;;;;;7278931;19;2004149;-80
2023/03/03 12:52:55;;;;;;;18.75;11.88;;;0.50;99.90;;;;;;7379094;19;21157;-79
2023/03/03 12:55:40;;;;;;;12.55;9.38;;;0.50;99.90;;;;;;7379771;19;20315;-80
2023/03/03 12:58:33;;;;;;;12.52;7.75;;;0.50;99.90;;;;;;7275743;19;2014272;-79
2023/03/03 13:01:04;;;;;;;13.40;9.80;;;0.60;99.90;;;;;;7379974;19;20317;-79
2023/03/03 13:04:03;;;;;;;14.02;8.68;;;0.40;99.90;;;;;;7381748;19;21158;-79